sensor_id;sensor_type;location;lat;lon;timestamp;P1;durP1;ratioP1;P2;durP2;ratioP2
26042;SDS011;13818;52.156;5.382;2024-02-26T00:00:11;0.55;;;0.43;;
26042;SDS011;13818;52.156;5.382;2024-02-26T00:02:39;2.47;;;0.73;;
26042;SDS011;13818;52.156;5.382;2024-02-26T00:05:07;0.75;;;0.75;;
26042;SDS011;13818;52.156;5.382;2024-02-26T00:07:33;2.67;;;1.23;;
26042;SDS011;13818;52.156;5.382;2024-02-26T00:10:00;0.63;;;0.63;;
26042;SDS011;13818;52.156;5.382;2024-02-26T00:12:26;1.75;;;1.33;;
26042;SDS011;13818;52.156;5.382;2024-02-26T00:14:53;1.05;;;0.63;;
26042;SDS011;13818;52.156;5.382;2024-02-26T00:17:23;1.75;;;1.65;;
26042;SDS011;13818;52.156;5.382;2024-02-26T00:19:49;0.93;;;0.88;;
26042;SDS011;13818;52.156;5.382;2024-02-26T00:22:16;0.60;;;0.57;;
26042;SDS011;13818;52.156;5.382;2024-02-26T00:24:42;0.98;;;0.77;;
26042;SDS011;13818;52.156;5.382;2024-02-26T00:27:09;1.08;;;0.98;;
26042;SDS011;13818;52.156;5.382;2024-02-26T00:29:35;2.50;;;1.00;;
26042;SDS011;13818;52.156;5.382;2024-02-26T00:32:02;0.75;;;0.75;;
26042;SDS011;13818;52.156;5.382;2024-02-26T00:34:30;1.48;;;1.33;;
26042;SDS011;13818;52.156;5.382;2024-02-26T00:36:57;1.35;;;1.25;;
26042;SDS011;13818;52.156;5.382;2024-02-26T00:39:23;1.27;;;1.17;;
26042;SDS011;13818;52.156;5.382;2024-02-26T00:41:49;1.88;;;1.15;;
26042;SDS011;13818;52.156;5.382;2024-02-26T00:44:17;0.90;;;0.90;;
26042;SDS011;13818;52.156;5.382;2024-02-26T00:46:44;1.70;;;0.98;;
26042;SDS011;13818;52.156;5.382;2024-02-26T00:49:11;1.60;;;0.82;;
26042;SDS011;13818;52.156;5.382;2024-02-26T00:51:38;2.13;;;1.77;;
26042;SDS011;13818;52.156;5.382;2024-02-26T00:54:05;3.65;;;1.55;;
26042;SDS011;13818;52.156;5.382;2024-02-26T00:56:31;0.98;;;0.77;;
26042;SDS011;13818;52.156;5.382;2024-02-26T00:58:58;0.40;;;0.40;;
26042;SDS011;13818;52.156;5.382;2024-02-26T01:01:24;1.42;;;1.33;;
26042;SDS011;13818;52.156;5.382;2024-02-26T01:03:51;3.63;;;1.63;;
26042;SDS011;13818;52.156;5.382;2024-02-26T01:06:18;3.40;;;2.30;;
26042;SDS011;13818;52.156;5.382;2024-02-26T01:08:45;4.13;;;1.58;;
26042;SDS011;13818;52.156;5.382;2024-02-26T01:11:12;1.67;;;0.73;;
26042;SDS011;13818;52.156;5.382;2024-02-26T01:13:38;3.20;;;1.92;;
26042;SDS011;13818;52.156;5.382;2024-02-26T01:16:05;2.25;;;1.92;;
26042;SDS011;13818;52.156;5.382;2024-02-26T01:18:32;2.78;;;1.55;;
26042;SDS011;13818;52.156;5.382;2024-02-26T01:20:58;3.97;;;1.52;;
26042;SDS011;13818;52.156;5.382;2024-02-26T01:23:25;1.98;;;1.27;;
26042;SDS011;13818;52.156;5.382;2024-02-26T01:25:52;2.42;;;2.13;;
26042;SDS011;13818;52.156;5.382;2024-02-26T01:28:19;2.70;;;1.80;;
26042;SDS011;13818;52.156;5.382;2024-02-26T01:30:45;1.95;;;1.42;;
26042;SDS011;13818;52.156;5.382;2024-02-26T01:33:13;1.90;;;1.50;;
26042;SDS011;13818;52.156;5.382;2024-02-26T01:35:39;2.40;;;1.75;;
26042;SDS011;13818;52.156;5.382;2024-02-26T01:38:06;5.38;;;1.40;;
26042;SDS011;13818;52.156;5.382;2024-02-26T01:40:32;2.35;;;1.63;;
26042;SDS011;13818;52.156;5.382;2024-02-26T01:43:00;1.00;;;0.88;;
26042;SDS011;13818;52.156;5.382;2024-02-26T01:45:28;2.30;;;1.42;;
26042;SDS011;13818;52.156;5.382;2024-02-26T01:47:54;1.23;;;1.00;;
26042;SDS011;13818;52.156;5.382;2024-02-26T01:50:21;3.65;;;1.50;;
26042;SDS011;13818;52.156;5.382;2024-02-26T01:52:49;3.35;;;2.13;;
26042;SDS011;13818;52.156;5.382;2024-02-26T01:55:17;1.30;;;1.15;;
26042;SDS011;13818;52.156;5.382;2024-02-26T01:57:44;1.08;;;0.90;;
26042;SDS011;13818;52.156;5.382;2024-02-26T02:00:13;1.50;;;0.45;;
26042;SDS011;13818;52.156;5.382;2024-02-26T02:02:41;1.77;;;1.00;;
26042;SDS011;13818;52.156;5.382;2024-02-26T02:05:09;3.22;;;1.20;;
26042;SDS011;13818;52.156;5.382;2024-02-26T02:07:38;0.85;;;0.85;;
26042;SDS011;13818;52.156;5.382;2024-02-26T02:10:05;3.03;;;1.83;;
26042;SDS011;13818;52.156;5.382;2024-02-26T02:12:33;3.10;;;1.70;;
26042;SDS011;13818;52.156;5.382;2024-02-26T02:15:01;2.67;;;1.00;;
26042;SDS011;13818;52.156;5.382;2024-02-26T02:17:30;3.60;;;1.55;;
26042;SDS011;13818;52.156;5.382;2024-02-26T02:19:57;2.10;;;1.20;;
26042;SDS011;13818;52.156;5.382;2024-02-26T02:22:25;0.88;;;0.77;;
26042;SDS011;13818;52.156;5.382;2024-02-26T02:24:52;2.45;;;1.35;;
26042;SDS011;13818;52.156;5.382;2024-02-26T02:27:20;2.67;;;2.38;;
26042;SDS011;13818;52.156;5.382;2024-02-26T02:29:47;5.22;;;1.02;;
26042;SDS011;13818;52.156;5.382;2024-02-26T02:32:15;0.45;;;0.30;;
26042;SDS011;13818;52.156;5.382;2024-02-26T02:34:43;2.13;;;1.48;;
26042;SDS011;13818;52.156;5.382;2024-02-26T02:37:10;0.95;;;0.82;;
26042;SDS011;13818;52.156;5.382;2024-02-26T02:39:38;3.72;;;2.08;;
26042;SDS011;13818;52.156;5.382;2024-02-26T02:42:04;1.77;;;0.88;;
26042;SDS011;13818;52.156;5.382;2024-02-26T02:44:31;4.25;;;1.77;;
26042;SDS011;13818;52.156;5.382;2024-02-26T02:46:57;2.53;;;1.20;;
26042;SDS011;13818;52.156;5.382;2024-02-26T02:49:24;2.97;;;1.65;;
26042;SDS011;13818;52.156;5.382;2024-02-26T02:51:51;3.50;;;1.85;;
26042;SDS011;13818;52.156;5.382;2024-02-26T02:54:18;4.03;;;1.65;;
26042;SDS011;13818;52.156;5.382;2024-02-26T02:56:46;1.58;;;1.42;;
26042;SDS011;13818;52.156;5.382;2024-02-26T02:59:12;2.78;;;1.30;;
26042;SDS011;13818;52.156;5.382;2024-02-26T03:01:40;3.03;;;2.28;;
26042;SDS011;13818;52.156;5.382;2024-02-26T03:04:06;4.30;;;2.45;;
26042;SDS011;13818;52.156;5.382;2024-02-26T03:06:33;1.92;;;0.85;;
26042;SDS011;13818;52.156;5.382;2024-02-26T03:08:59;2.08;;;1.20;;
26042;SDS011;13818;52.156;5.382;2024-02-26T03:11:26;3.80;;;2.60;;
26042;SDS011;13818;52.156;5.382;2024-02-26T03:13:54;3.75;;;2.45;;
26042;SDS011;13818;52.156;5.382;2024-02-26T03:16:20;2.25;;;2.05;;
26042;SDS011;13818;52.156;5.382;2024-02-26T03:18:47;2.60;;;1.45;;
26042;SDS011;13818;52.156;5.382;2024-02-26T03:21:13;9.48;;;2.63;;
26042;SDS011;13818;52.156;5.382;2024-02-26T03:23:40;2.53;;;0.85;;
26042;SDS011;13818;52.156;5.382;2024-02-26T03:26:06;2.67;;;1.65;;
26042;SDS011;13818;52.156;5.382;2024-02-26T03:28:33;2.13;;;1.70;;
26042;SDS011;13818;52.156;5.382;2024-02-26T03:31:02;2.83;;;0.70;;
26042;SDS011;13818;52.156;5.382;2024-02-26T03:33:28;3.08;;;1.98;;
26042;SDS011;13818;52.156;5.382;2024-02-26T03:35:55;3.05;;;1.77;;
26042;SDS011;13818;52.156;5.382;2024-02-26T03:38:20;3.17;;;2.40;;
26042;SDS011;13818;52.156;5.382;2024-02-26T03:40:47;3.08;;;1.70;;
26042;SDS011;13818;52.156;5.382;2024-02-26T03:43:13;2.25;;;1.05;;
26042;SDS011;13818;52.156;5.382;2024-02-26T03:45:40;4.35;;;2.22;;
26042;SDS011;13818;52.156;5.382;2024-02-26T03:48:08;3.58;;;2.40;;
26042;SDS011;13818;52.156;5.382;2024-02-26T03:50:34;2.42;;;1.15;;
26042;SDS011;13818;52.156;5.382;2024-02-26T03:53:01;2.80;;;2.50;;
26042;SDS011;13818;52.156;5.382;2024-02-26T03:55:28;2.97;;;2.70;;
26042;SDS011;13818;52.156;5.382;2024-02-26T03:57:55;4.38;;;2.25;;
26042;SDS011;13818;52.156;5.382;2024-02-26T04:00:22;3.42;;;2.17;;
26042;SDS011;13818;52.156;5.382;2024-02-26T04:02:50;4.03;;;3.10;;
26042;SDS011;13818;52.156;5.382;2024-02-26T04:05:18;2.53;;;1.67;;
26042;SDS011;13818;52.156;5.382;2024-02-26T04:07:45;2.30;;;1.42;;
26042;SDS011;13818;52.156;5.382;2024-02-26T04:10:12;2.92;;;1.95;;
26042;SDS011;13818;52.156;5.382;2024-02-26T04:12:39;2.55;;;2.00;;
26042;SDS011;13818;52.156;5.382;2024-02-26T04:15:06;4.20;;;1.98;;
26042;SDS011;13818;52.156;5.382;2024-02-26T04:17:34;3.03;;;1.67;;
26042;SDS011;13818;52.156;5.382;2024-02-26T04:20:01;3.35;;;2.38;;
26042;SDS011;13818;52.156;5.382;2024-02-26T04:22:29;3.13;;;2.20;;
26042;SDS011;13818;52.156;5.382;2024-02-26T04:24:55;3.08;;;2.33;;
26042;SDS011;13818;52.156;5.382;2024-02-26T04:27:22;1.63;;;1.50;;
26042;SDS011;13818;52.156;5.382;2024-02-26T04:29:48;2.72;;;2.00;;
26042;SDS011;13818;52.156;5.382;2024-02-26T04:32:14;6.13;;;2.03;;
26042;SDS011;13818;52.156;5.382;2024-02-26T04:34:41;3.58;;;1.83;;
26042;SDS011;13818;52.156;5.382;2024-02-26T04:37:08;2.78;;;2.17;;
26042;SDS011;13818;52.156;5.382;2024-02-26T04:39:36;5.03;;;1.63;;
26042;SDS011;13818;52.156;5.382;2024-02-26T04:42:02;3.70;;;2.67;;
26042;SDS011;13818;52.156;5.382;2024-02-26T04:44:29;4.13;;;1.80;;
26042;SDS011;13818;52.156;5.382;2024-02-26T04:46:56;3.15;;;2.10;;
26042;SDS011;13818;52.156;5.382;2024-02-26T04:49:22;5.63;;;1.60;;
26042;SDS011;13818;52.156;5.382;2024-02-26T04:51:49;2.53;;;1.98;;
26042;SDS011;13818;52.156;5.382;2024-02-26T04:54:15;3.13;;;1.75;;
26042;SDS011;13818;52.156;5.382;2024-02-26T04:56:43;6.22;;;3.55;;
26042;SDS011;13818;52.156;5.382;2024-02-26T04:59:10;3.13;;;2.53;;
26042;SDS011;13818;52.156;5.382;2024-02-26T05:01:36;5.30;;;2.83;;
26042;SDS011;13818;52.156;5.382;2024-02-26T05:04:03;2.92;;;1.95;;
26042;SDS011;13818;52.156;5.382;2024-02-26T05:06:29;2.33;;;2.03;;
26042;SDS011;13818;52.156;5.382;2024-02-26T05:08:56;4.82;;;2.97;;
26042;SDS011;13818;52.156;5.382;2024-02-26T05:11:22;2.63;;;2.33;;
26042;SDS011;13818;52.156;5.382;2024-02-26T05:13:50;2.13;;;1.92;;
26042;SDS011;13818;52.156;5.382;2024-02-26T05:16:17;6.53;;;2.28;;
26042;SDS011;13818;52.156;5.382;2024-02-26T05:18:45;12.68;;;2.72;;
26042;SDS011;13818;52.156;5.382;2024-02-26T05:21:11;2.50;;;1.45;;
26042;SDS011;13818;52.156;5.382;2024-02-26T05:23:38;4.68;;;1.98;;
26042;SDS011;13818;52.156;5.382;2024-02-26T05:26:04;4.28;;;2.10;;
26042;SDS011;13818;52.156;5.382;2024-02-26T05:28:31;2.15;;;1.50;;
26042;SDS011;13818;52.156;5.382;2024-02-26T05:30:59;5.97;;;2.58;;
26042;SDS011;13818;52.156;5.382;2024-02-26T05:33:25;2.97;;;1.75;;
26042;SDS011;13818;52.156;5.382;2024-02-26T05:35:52;4.78;;;2.25;;
26042;SDS011;13818;52.156;5.382;2024-02-26T05:38:19;2.40;;;2.20;;
26042;SDS011;13818;52.156;5.382;2024-02-26T05:40:46;1.92;;;1.35;;
26042;SDS011;13818;52.156;5.382;2024-02-26T05:43:12;2.28;;;1.55;;
26042;SDS011;13818;52.156;5.382;2024-02-26T05:45:40;5.60;;;3.40;;
26042;SDS011;13818;52.156;5.382;2024-02-26T05:48:08;3.88;;;2.05;;
26042;SDS011;13818;52.156;5.382;2024-02-26T05:50:34;4.72;;;2.17;;
26042;SDS011;13818;52.156;5.382;2024-02-26T05:53:02;2.03;;;1.67;;
26042;SDS011;13818;52.156;5.382;2024-02-26T05:55:29;1.92;;;1.33;;
26042;SDS011;13818;52.156;5.382;2024-02-26T05:57:55;6.60;;;2.28;;
26042;SDS011;13818;52.156;5.382;2024-02-26T06:00:23;4.75;;;2.70;;
26042;SDS011;13818;52.156;5.382;2024-02-26T06:02:49;4.07;;;2.30;;
26042;SDS011;13818;52.156;5.382;2024-02-26T06:05:17;4.47;;;2.78;;
26042;SDS011;13818;52.156;5.382;2024-02-26T06:07:43;3.38;;;2.05;;
26042;SDS011;13818;52.156;5.382;2024-02-26T06:10:10;3.65;;;2.10;;
26042;SDS011;13818;52.156;5.382;2024-02-26T06:12:38;4.55;;;2.40;;
26042;SDS011;13818;52.156;5.382;2024-02-26T06:15:05;22.50;;;4.07;;
26042;SDS011;13818;52.156;5.382;2024-02-26T06:17:34;2.50;;;2.05;;
26042;SDS011;13818;52.156;5.382;2024-02-26T06:20:01;3.85;;;3.03;;
26042;SDS011;13818;52.156;5.382;2024-02-26T06:22:30;4.05;;;2.33;;
26042;SDS011;13818;52.156;5.382;2024-02-26T06:24:58;2.13;;;1.45;;
26042;SDS011;13818;52.156;5.382;2024-02-26T06:27:24;3.53;;;2.15;;
26042;SDS011;13818;52.156;5.382;2024-02-26T06:29:51;8.23;;;3.25;;
26042;SDS011;13818;52.156;5.382;2024-02-26T06:32:17;2.65;;;2.13;;
26042;SDS011;13818;52.156;5.382;2024-02-26T06:34:44;4.07;;;2.83;;
26042;SDS011;13818;52.156;5.382;2024-02-26T06:37:10;5.20;;;2.13;;
26042;SDS011;13818;52.156;5.382;2024-02-26T06:39:38;4.00;;;2.45;;
26042;SDS011;13818;52.156;5.382;2024-02-26T06:42:06;4.15;;;3.03;;
26042;SDS011;13818;52.156;5.382;2024-02-26T06:44:32;3.30;;;2.08;;
26042;SDS011;13818;52.156;5.382;2024-02-26T06:46:59;4.28;;;2.88;;
26042;SDS011;13818;52.156;5.382;2024-02-26T06:49:26;3.00;;;2.38;;
26042;SDS011;13818;52.156;5.382;2024-02-26T06:51:52;6.07;;;3.55;;
26042;SDS011;13818;52.156;5.382;2024-02-26T06:54:19;6.60;;;3.60;;
26042;SDS011;13818;52.156;5.382;2024-02-26T06:56:47;2.53;;;2.15;;
26042;SDS011;13818;52.156;5.382;2024-02-26T06:59:13;3.55;;;1.92;;
26042;SDS011;13818;52.156;5.382;2024-02-26T07:01:40;11.68;;;4.22;;
26042;SDS011;13818;52.156;5.382;2024-02-26T07:04:07;10.52;;;5.15;;
26042;SDS011;13818;52.156;5.382;2024-02-26T07:06:34;3.55;;;3.20;;
26042;SDS011;13818;52.156;5.382;2024-02-26T07:09:01;7.35;;;4.07;;
26042;SDS011;13818;52.156;5.382;2024-02-26T07:11:28;7.85;;;4.25;;
26042;SDS011;13818;52.156;5.382;2024-02-26T07:13:56;7.68;;;4.22;;
26042;SDS011;13818;52.156;5.382;2024-02-26T07:16:22;9.27;;;4.60;;
26042;SDS011;13818;52.156;5.382;2024-02-26T07:18:49;10.43;;;4.50;;
26042;SDS011;13818;52.156;5.382;2024-02-26T07:21:15;10.02;;;5.53;;
26042;SDS011;13818;52.156;5.382;2024-02-26T07:23:42;10.13;;;4.70;;
26042;SDS011;13818;52.156;5.382;2024-02-26T07:26:08;6.45;;;4.18;;
26042;SDS011;13818;52.156;5.382;2024-02-26T07:28:36;11.45;;;5.18;;
26042;SDS011;13818;52.156;5.382;2024-02-26T07:31:04;4.85;;;4.28;;
26042;SDS011;13818;52.156;5.382;2024-02-26T07:33:31;15.95;;;6.20;;
26042;SDS011;13818;52.156;5.382;2024-02-26T07:35:57;9.55;;;5.85;;
26042;SDS011;13818;52.156;5.382;2024-02-26T07:38:24;10.27;;;6.72;;
26042;SDS011;13818;52.156;5.382;2024-02-26T07:40:50;9.88;;;5.07;;
26042;SDS011;13818;52.156;5.382;2024-02-26T07:43:17;6.03;;;3.38;;
26042;SDS011;13818;52.156;5.382;2024-02-26T07:45:43;7.05;;;3.17;;
26042;SDS011;13818;52.156;5.382;2024-02-26T07:48:11;13.63;;;5.60;;
26042;SDS011;13818;52.156;5.382;2024-02-26T07:50:38;9.32;;;6.18;;
26042;SDS011;13818;52.156;5.382;2024-02-26T07:53:05;7.25;;;4.28;;
26042;SDS011;13818;52.156;5.382;2024-02-26T07:55:32;7.30;;;4.38;;
26042;SDS011;13818;52.156;5.382;2024-02-26T07:57:59;13.40;;;5.10;;
26042;SDS011;13818;52.156;5.382;2024-02-26T08:00:26;7.00;;;4.30;;
26042;SDS011;13818;52.156;5.382;2024-02-26T08:02:52;8.38;;;5.00;;
26042;SDS011;13818;52.156;5.382;2024-02-26T08:05:20;16.55;;;7.95;;
26042;SDS011;13818;52.156;5.382;2024-02-26T08:07:47;6.25;;;2.20;;
26042;SDS011;13818;52.156;5.382;2024-02-26T08:10:14;7.18;;;4.25;;
26042;SDS011;13818;52.156;5.382;2024-02-26T08:12:40;6.97;;;3.25;;
26042;SDS011;13818;52.156;5.382;2024-02-26T08:15:07;7.13;;;2.95;;
26042;SDS011;13818;52.156;5.382;2024-02-26T08:17:35;6.47;;;3.22;;
26042;SDS011;13818;52.156;5.382;2024-02-26T08:20:02;3.83;;;2.72;;
26042;SDS011;13818;52.156;5.382;2024-02-26T08:22:30;5.32;;;3.22;;
26042;SDS011;13818;52.156;5.382;2024-02-26T08:24:58;5.55;;;3.50;;
26042;SDS011;13818;52.156;5.382;2024-02-26T08:27:24;5.43;;;2.97;;
26042;SDS011;13818;52.156;5.382;2024-02-26T08:29:51;4.75;;;2.70;;
26042;SDS011;13818;52.156;5.382;2024-02-26T08:32:17;4.90;;;3.17;;
26042;SDS011;13818;52.156;5.382;2024-02-26T08:34:44;3.28;;;1.25;;
26042;SDS011;13818;52.156;5.382;2024-02-26T08:37:11;3.95;;;2.75;;
26042;SDS011;13818;52.156;5.382;2024-02-26T08:39:39;4.63;;;3.03;;
26042;SDS011;13818;52.156;5.382;2024-02-26T08:42:05;3.28;;;2.03;;
26042;SDS011;13818;52.156;5.382;2024-02-26T08:44:32;5.18;;;2.72;;
26042;SDS011;13818;52.156;5.382;2024-02-26T08:46:59;3.38;;;2.22;;
26042;SDS011;13818;52.156;5.382;2024-02-26T08:49:26;3.90;;;2.97;;
26042;SDS011;13818;52.156;5.382;2024-02-26T08:51:52;3.83;;;2.53;;
26042;SDS011;13818;52.156;5.382;2024-02-26T08:54:19;3.75;;;2.47;;
26042;SDS011;13818;52.156;5.382;2024-02-26T08:56:47;1.83;;;1.42;;
26042;SDS011;13818;52.156;5.382;2024-02-26T08:59:14;3.22;;;2.13;;
26042;SDS011;13818;52.156;5.382;2024-02-26T09:01:41;3.45;;;2.90;;
26042;SDS011;13818;52.156;5.382;2024-02-26T09:04:08;7.28;;;2.78;;
26042;SDS011;13818;52.156;5.382;2024-02-26T09:06:34;4.10;;;2.45;;
26042;SDS011;13818;52.156;5.382;2024-02-26T09:09:01;4.15;;;2.38;;
26042;SDS011;13818;52.156;5.382;2024-02-26T09:11:28;5.20;;;4.00;;
26042;SDS011;13818;52.156;5.382;2024-02-26T09:13:57;3.72;;;1.75;;
26042;SDS011;13818;52.156;5.382;2024-02-26T09:16:24;4.43;;;1.85;;
26042;SDS011;13818;52.156;5.382;2024-02-26T09:18:50;2.15;;;1.58;;
26042;SDS011;13818;52.156;5.382;2024-02-26T09:21:17;3.40;;;2.10;;
26042;SDS011;13818;52.156;5.382;2024-02-26T09:23:48;3.30;;;1.88;;
26042;SDS011;13818;52.156;5.382;2024-02-26T09:26:14;3.00;;;1.95;;
26042;SDS011;13818;52.156;5.382;2024-02-26T09:28:41;3.53;;;2.60;;
26042;SDS011;13818;52.156;5.382;2024-02-26T09:31:10;4.07;;;2.15;;
26042;SDS011;13818;52.156;5.382;2024-02-26T09:33:36;7.07;;;2.05;;
26042;SDS011;13818;52.156;5.382;2024-02-26T09:36:03;4.47;;;2.30;;
26042;SDS011;13818;52.156;5.382;2024-02-26T09:38:29;2.35;;;1.27;;
26042;SDS011;13818;52.156;5.382;2024-02-26T09:40:56;4.70;;;2.65;;
26042;SDS011;13818;52.156;5.382;2024-02-26T09:43:23;2.70;;;1.33;;
26042;SDS011;13818;52.156;5.382;2024-02-26T09:45:52;4.47;;;2.22;;
26042;SDS011;13818;52.156;5.382;2024-02-26T09:48:21;2.30;;;1.30;;
26042;SDS011;13818;52.156;5.382;2024-02-26T09:50:49;2.83;;;1.95;;
26042;SDS011;13818;52.156;5.382;2024-02-26T09:53:16;2.30;;;1.98;;
26042;SDS011;13818;52.156;5.382;2024-02-26T09:55:44;3.13;;;1.38;;
26042;SDS011;13818;52.156;5.382;2024-02-26T09:58:10;3.00;;;1.92;;
26042;SDS011;13818;52.156;5.382;2024-02-26T10:00:43;1.08;;;0.98;;
26042;SDS011;13818;52.156;5.382;2024-02-26T10:03:16;3.70;;;1.70;;
26042;SDS011;13818;52.156;5.382;2024-02-26T10:05:48;7.13;;;2.45;;
26042;SDS011;13818;52.156;5.382;2024-02-26T10:08:18;2.95;;;2.13;;
26042;SDS011;13818;52.156;5.382;2024-02-26T10:10:47;2.50;;;1.58;;
26042;SDS011;13818;52.156;5.382;2024-02-26T10:13:14;3.28;;;1.48;;
26042;SDS011;13818;52.156;5.382;2024-02-26T10:15:40;2.42;;;1.38;;
26042;SDS011;13818;52.156;5.382;2024-02-26T10:18:07;2.05;;;1.35;;
26042;SDS011;13818;52.156;5.382;2024-02-26T10:20:33;7.10;;;1.75;;
26042;SDS011;13818;52.156;5.382;2024-02-26T10:23:03;2.95;;;1.77;;
26042;SDS011;13818;52.156;5.382;2024-02-26T10:25:30;2.30;;;1.52;;
26042;SDS011;13818;52.156;5.382;2024-02-26T10:27:58;5.05;;;2.35;;
26042;SDS011;13818;52.156;5.382;2024-02-26T10:30:27;6.38;;;2.35;;
26042;SDS011;13818;52.156;5.382;2024-02-26T10:32:54;3.30;;;1.55;;
26042;SDS011;13818;52.156;5.382;2024-02-26T10:35:20;1.85;;;1.23;;
26042;SDS011;13818;52.156;5.382;2024-02-26T10:37:47;1.92;;;1.73;;
26042;SDS011;13818;52.156;5.382;2024-02-26T10:40:16;4.03;;;1.70;;
26042;SDS011;13818;52.156;5.382;2024-02-26T10:42:43;9.88;;;1.05;;
26042;SDS011;13818;52.156;5.382;2024-02-26T10:45:12;3.42;;;3.13;;
26042;SDS011;13818;52.156;5.382;2024-02-26T10:47:39;2.00;;;1.85;;
26042;SDS011;13818;52.156;5.382;2024-02-26T10:50:07;1.20;;;0.85;;
26042;SDS011;13818;52.156;5.382;2024-02-26T10:52:34;1.73;;;1.63;;
26042;SDS011;13818;52.156;5.382;2024-02-26T10:55:02;2.40;;;1.42;;
26042;SDS011;13818;52.156;5.382;2024-02-26T10:57:33;2.45;;;1.02;;
26042;SDS011;13818;52.156;5.382;2024-02-26T11:00:06;1.52;;;1.42;;
26042;SDS011;13818;52.156;5.382;2024-02-26T11:02:37;3.92;;;1.63;;
26042;SDS011;13818;52.156;5.382;2024-02-26T11:05:06;2.60;;;1.85;;
26042;SDS011;13818;52.156;5.382;2024-02-26T11:07:34;1.85;;;1.67;;
26042;SDS011;13818;52.156;5.382;2024-02-26T11:10:02;3.47;;;2.67;;
26042;SDS011;13818;52.156;5.382;2024-02-26T11:12:30;2.00;;;1.80;;
26042;SDS011;13818;52.156;5.382;2024-02-26T11:15:06;3.55;;;1.88;;
26042;SDS011;13818;52.156;5.382;2024-02-26T11:17:35;2.05;;;1.50;;
26042;SDS011;13818;52.156;5.382;2024-02-26T11:20:03;4.30;;;2.00;;
26042;SDS011;13818;52.156;5.382;2024-02-26T11:22:31;4.05;;;1.50;;
26042;SDS011;13818;52.156;5.382;2024-02-26T11:24:58;1.05;;;0.85;;
26042;SDS011;13818;52.156;5.382;2024-02-26T11:27:26;2.95;;;2.05;;
26042;SDS011;13818;52.156;5.382;2024-02-26T11:29:59;2.22;;;1.42;;
26042;SDS011;13818;52.156;5.382;2024-02-26T11:32:27;2.53;;;1.48;;
26042;SDS011;13818;52.156;5.382;2024-02-26T11:34:55;1.83;;;1.70;;
26042;SDS011;13818;52.156;5.382;2024-02-26T11:37:22;3.50;;;2.35;;
26042;SDS011;13818;52.156;5.382;2024-02-26T11:39:49;1.50;;;1.40;;
26042;SDS011;13818;52.156;5.382;2024-02-26T11:42:17;2.92;;;2.03;;
26042;SDS011;13818;52.156;5.382;2024-02-26T11:44:49;2.38;;;1.85;;
26042;SDS011;13818;52.156;5.382;2024-02-26T11:47:19;5.13;;;3.40;;
26042;SDS011;13818;52.156;5.382;2024-02-26T11:49:47;2.60;;;1.42;;
26042;SDS011;13818;52.156;5.382;2024-02-26T11:52:14;3.90;;;2.80;;
26042;SDS011;13818;52.156;5.382;2024-02-26T11:54:45;3.90;;;1.88;;
26042;SDS011;13818;52.156;5.382;2024-02-26T11:57:19;3.95;;;2.15;;
26042;SDS011;13818;52.156;5.382;2024-02-26T11:59:49;5.47;;;1.98;;
26042;SDS011;13818;52.156;5.382;2024-02-26T12:05:09;4.13;;;1.80;;
26042;SDS011;13818;52.156;5.382;2024-02-26T12:07:39;2.95;;;1.35;;
26042;SDS011;13818;52.156;5.382;2024-02-26T12:12:41;2.42;;;1.73;;
26042;SDS011;13818;52.156;5.382;2024-02-26T12:15:08;2.80;;;1.40;;
26042;SDS011;13818;52.156;5.382;2024-02-26T12:17:36;3.80;;;1.65;;
26042;SDS011;13818;52.156;5.382;2024-02-26T12:20:10;2.10;;;1.63;;
26042;SDS011;13818;52.156;5.382;2024-02-26T12:22:39;3.25;;;2.05;;
26042;SDS011;13818;52.156;5.382;2024-02-26T12:25:07;3.38;;;1.35;;
26042;SDS011;13818;52.156;5.382;2024-02-26T12:27:35;1.67;;;1.10;;
26042;SDS011;13818;52.156;5.382;2024-02-26T12:30:02;2.85;;;1.55;;
26042;SDS011;13818;52.156;5.382;2024-02-26T12:32:29;3.33;;;1.95;;
26042;SDS011;13818;52.156;5.382;2024-02-26T12:34:56;2.92;;;1.98;;
26042;SDS011;13818;52.156;5.382;2024-02-26T12:37:24;1.30;;;1.20;;
26042;SDS011;13818;52.156;5.382;2024-02-26T12:39:51;2.17;;;1.25;;
26042;SDS011;13818;52.156;5.382;2024-02-26T12:42:17;1.85;;;1.55;;
26042;SDS011;13818;52.156;5.382;2024-02-26T12:44:44;1.98;;;1.67;;
26042;SDS011;13818;52.156;5.382;2024-02-26T12:47:11;2.55;;;1.40;;
26042;SDS011;13818;52.156;5.382;2024-02-26T12:49:41;3.80;;;2.63;;
26042;SDS011;13818;52.156;5.382;2024-02-26T12:52:08;4.13;;;2.20;;
26042;SDS011;13818;52.156;5.382;2024-02-26T12:54:37;4.05;;;2.00;;
26042;SDS011;13818;52.156;5.382;2024-02-26T12:57:06;3.60;;;2.17;;
26042;SDS011;13818;52.156;5.382;2024-02-26T12:59:34;1.83;;;1.20;;
26042;SDS011;13818;52.156;5.382;2024-02-26T13:02:01;4.30;;;2.35;;
26042;SDS011;13818;52.156;5.382;2024-02-26T13:04:29;2.38;;;2.15;;
26042;SDS011;13818;52.156;5.382;2024-02-26T13:06:56;2.33;;;1.90;;
26042;SDS011;13818;52.156;5.382;2024-02-26T13:09:25;1.67;;;1.48;;
26042;SDS011;13818;52.156;5.382;2024-02-26T13:11:54;3.20;;;1.67;;
26042;SDS011;13818;52.156;5.382;2024-02-26T13:14:21;2.05;;;1.45;;
26042;SDS011;13818;52.156;5.382;2024-02-26T13:16:54;3.05;;;1.92;;
26042;SDS011;13818;52.156;5.382;2024-02-26T13:19:21;2.90;;;2.13;;
26042;SDS011;13818;52.156;5.382;2024-02-26T13:21:47;1.75;;;1.27;;
26042;SDS011;13818;52.156;5.382;2024-02-26T13:24:14;1.13;;;0.93;;
26042;SDS011;13818;52.156;5.382;2024-02-26T13:26:41;2.50;;;1.80;;
26042;SDS011;13818;52.156;5.382;2024-02-26T13:29:09;1.58;;;0.68;;
26042;SDS011;13818;52.156;5.382;2024-02-26T13:31:43;2.85;;;1.92;;
26042;SDS011;13818;52.156;5.382;2024-02-26T13:34:09;4.07;;;1.40;;
26042;SDS011;13818;52.156;5.382;2024-02-26T13:36:36;3.10;;;2.10;;
26042;SDS011;13818;52.156;5.382;2024-02-26T13:39:04;3.00;;;1.83;;
26042;SDS011;13818;52.156;5.382;2024-02-26T13:41:30;2.80;;;1.20;;
26042;SDS011;13818;52.156;5.382;2024-02-26T13:43:57;1.35;;;1.05;;
26042;SDS011;13818;52.156;5.382;2024-02-26T13:46:25;2.85;;;1.55;;
26042;SDS011;13818;52.156;5.382;2024-02-26T13:48:51;2.97;;;1.80;;
26042;SDS011;13818;52.156;5.382;2024-02-26T13:51:19;2.17;;;1.42;;
26042;SDS011;13818;52.156;5.382;2024-02-26T13:53:46;2.47;;;1.80;;
26042;SDS011;13818;52.156;5.382;2024-02-26T13:56:12;0.93;;;0.75;;
26042;SDS011;13818;52.156;5.382;2024-02-26T13:58:39;2.60;;;1.38;;
26042;SDS011;13818;52.156;5.382;2024-02-26T14:01:07;2.50;;;1.10;;
26042;SDS011;13818;52.156;5.382;2024-02-26T14:03:35;1.50;;;1.25;;
26042;SDS011;13818;52.156;5.382;2024-02-26T14:06:02;1.55;;;1.20;;
26042;SDS011;13818;52.156;5.382;2024-02-26T14:08:29;3.72;;;1.35;;
26042;SDS011;13818;52.156;5.382;2024-02-26T14:10:55;2.45;;;1.38;;
26042;SDS011;13818;52.156;5.382;2024-02-26T14:13:22;2.00;;;1.45;;
26042;SDS011;13818;52.156;5.382;2024-02-26T14:15:49;2.83;;;1.27;;
26042;SDS011;13818;52.156;5.382;2024-02-26T14:18:15;2.50;;;0.98;;
26042;SDS011;13818;52.156;5.382;2024-02-26T14:20:43;1.17;;;0.75;;
26042;SDS011;13818;52.156;5.382;2024-02-26T14:23:10;7.80;;;0.70;;
26042;SDS011;13818;52.156;5.382;2024-02-26T14:25:36;1.90;;;1.00;;
26042;SDS011;13818;52.156;5.382;2024-02-26T14:28:03;0.98;;;0.95;;
26042;SDS011;13818;52.156;5.382;2024-02-26T14:30:30;2.53;;;2.15;;
26042;SDS011;13818;52.156;5.382;2024-02-26T14:32:57;3.28;;;2.15;;
26042;SDS011;13818;52.156;5.382;2024-02-26T14:35:24;1.08;;;0.75;;
26042;SDS011;13818;52.156;5.382;2024-02-26T14:37:52;4.35;;;1.15;;
26042;SDS011;13818;52.156;5.382;2024-02-26T14:40:20;2.55;;;1.30;;
26042;SDS011;13818;52.156;5.382;2024-02-26T14:42:46;2.10;;;1.52;;
26042;SDS011;13818;52.156;5.382;2024-02-26T14:45:13;4.38;;;1.58;;
26042;SDS011;13818;52.156;5.382;2024-02-26T14:47:40;1.13;;;0.73;;
26042;SDS011;13818;52.156;5.382;2024-02-26T14:50:06;1.13;;;0.88;;
26042;SDS011;13818;52.156;5.382;2024-02-26T14:52:33;1.80;;;0.70;;